Time;durP1;ratioP1;P1;durP2;ratioP2;P2;SDS_P1;SDS_P2;PMS_P1;PMS_P2;Temp;Humidity;BMP_temperature;BMP_pressure;BME280_temperature;BME280_humidity;BME280_pressure;Samples;Min_cycle;Max_cycle;Signal;HPM_P1;HPM_P2
2023/02/01 00:02:03;;;;;;;34.10;8.10;;;4.10;99.90;;;;;;5044570;28;20380;-79
2023/02/01 00:04:29;;;;;;;31.87;8.23;;;4.20;99.90;;;;;;5038904;28;20487;-80
2023/02/01 00:06:55;;;;;;;27.50;7.82;;;4.00;99.90;;;;;;5042852;28;20404;-80
2023/02/01 00:09:20;;;;;;;30.13;7.53;;;3.90;99.90;;;;;;5039389;28;20475;-79
2023/02/01 00:11:46;;;;;;;31.37;7.90;;;4.00;99.90;;;;;;5042399;28;20414;-80
2023/02/01 00:14:12;;;;;;;23.60;7.23;;;4.10;99.90;;;;;;5044171;28;20385;-80
2023/02/01 00:16:38;;;;;;;22.30;6.20;;;4.10;99.90;;;;;;5038488;28;20477;-80
2023/02/01 00:19:07;;;;;;;19.37;6.13;;;4.10;99.90;;;;;;5041534;28;20952;-80
2023/02/01 00:21:34;;;;;;;25.20;7.33;;;4.10;99.90;;;;;;5055453;28;20398;-80
2023/02/01 00:24:00;;;;;;;21.07;6.07;;;4.10;99.90;;;;;;5051933;28;20469;-80
2023/02/01 00:26:32;;;;;;;25.10;6.20;;;4.00;99.90;;;;;;5054031;28;20926;-79
2023/02/01 00:28:58;;;;;;;21.52;5.97;;;4.00;99.90;;;;;;5044794;28;20384;-79
2023/02/01 00:31:24;;;;;;;18.60;5.25;;;4.00;99.90;;;;;;5047913;28;20415;-79
2023/02/01 00:33:50;;;;;;;17.75;4.55;;;4.00;99.90;;;;;;5044071;28;20385;-80
2023/02/01 00:36:15;;;;;;;13.93;4.50;;;4.00;99.90;;;;;;5041407;28;20407;-80
2023/02/01 00:38:41;;;;;;;16.07;4.60;;;3.80;99.90;;;;;;5036750;28;20386;-79
2023/02/01 00:41:11;;;;;;;20.40;5.00;;;3.70;99.90;;;;;;5031679;28;20428;-79
2023/02/01 00:43:38;;;;;;;18.75;5.10;;;3.60;99.90;;;;;;5052677;28;20398;-79
2023/02/01 00:46:03;;;;;;;17.27;5.03;;;3.60;99.90;;;;;;5058489;28;20422;-77
2023/02/01 00:48:30;;;;;;;15.13;4.60;;;3.50;99.90;;;;;;5045092;28;20804;-79
2023/02/01 00:51:07;;;;;;;13.38;4.90;;;3.40;99.90;;;;;;5050261;28;20445;-79
2023/02/01 00:53:32;;;;;;;20.40;5.37;;;3.40;99.90;;;;;;5042683;28;20834;-80
2023/02/01 00:55:59;;;;;;;22.50;5.33;;;3.30;99.90;;;;;;5041855;28;20444;-80
2023/02/01 00:58:26;;;;;;;20.48;5.28;;;3.30;99.90;;;;;;5042778;28;20389;-79
2023/02/01 01:01:15;;;;;;;22.63;5.97;;;3.40;99.90;;;;;;5046252;28;20446;-78
2023/02/01 01:03:43;;;;;;;20.75;6.13;;;3.50;99.90;;;;;;5042506;28;20440;-78
2023/02/01 01:06:16;;;;;;;21.35;5.93;;;3.40;99.90;;;;;;5040205;28;20438;-79
2023/02/01 01:08:42;;;;;;;23.63;5.68;;;3.50;99.90;;;;;;5040789;28;20674;-79
2023/02/01 01:11:09;;;;;;;24.90;6.00;;;3.50;99.90;;;;;;5045105;28;20884;-79
2023/02/01 01:13:36;;;;;;;18.92;5.95;;;3.50;99.90;;;;;;5044068;28;20402;-79
2023/02/01 01:16:03;;;;;;;24.70;6.05;;;3.60;99.90;;;;;;5044311;28;20405;-79
2023/02/01 01:18:30;;;;;;;21.88;6.32;;;3.60;99.90;;;;;;5042634;28;20415;-78
2023/02/01 01:23:32;;;;;;;25.15;6.68;;;3.60;99.90;;;;;;5090935;22;20414;-78
2023/02/01 01:25:58;;;;;;;22.73;6.63;;;3.70;99.90;;;;;;4969370;28;20718;-80
2023/02/01 01:28:24;;;;;;;25.83;6.50;;;3.70;99.90;;;;;;4968255;28;20418;-79
2023/02/01 01:30:49;;;;;;;22.80;6.72;;;3.80;99.90;;;;;;4969802;28;20379;-78
2023/02/01 01:33:15;;;;;;;25.13;6.40;;;3.80;99.90;;;;;;4970174;28;20410;-79
2023/02/01 01:35:41;;;;;;;20.88;5.82;;;3.70;99.90;;;;;;4968979;28;20414;-78
2023/02/01 01:38:08;;;;;;;24.30;6.63;;;3.80;99.90;;;;;;4969534;28;20414;-79
2023/02/01 01:40:34;;;;;;;22.75;6.25;;;3.80;99.90;;;;;;4967910;28;20831;-79
2023/02/01 01:42:59;;;;;;;23.10;6.40;;;3.80;99.90;;;;;;4969806;28;20462;-79
2023/02/01 01:45:33;;;;;;;24.73;6.70;;;3.80;99.90;;;;;;4973318;28;20525;-79
2023/02/01 01:48:05;;;;;;;23.25;6.65;;;3.80;99.90;;;;;;4969678;28;20412;-79
2023/02/01 01:50:54;;;;;;;27.83;6.60;;;3.90;99.90;;;;;;4962243;28;20857;-79
2023/02/01 01:53:26;;;;;;;25.38;7.00;;;3.80;99.90;;;;;;4965393;28;20418;-78
2023/02/01 01:55:54;;;;;;;23.02;6.43;;;4.10;99.90;;;;;;4973026;28;20406;-79
2023/02/01 01:58:23;;;;;;;21.15;6.25;;;3.70;99.90;;;;;;4972108;28;20445;-79
2023/02/01 02:00:48;;;;;;;27.98;6.85;;;3.90;99.90;;;;;;4971483;28;20398;-80
2023/02/01 02:03:19;;;;;;;24.48;6.28;;;3.80;99.90;;;;;;4972580;28;20391;-79
2023/02/01 02:05:46;;;;;;;23.58;6.53;;;3.90;99.90;;;;;;4972377;28;20474;-79
2023/02/01 02:08:12;;;;;;;19.17;5.85;;;3.80;99.90;;;;;;4969697;28;21128;-79
2023/02/01 02:13:41;;;;;;;25.67;7.65;;;3.90;99.90;;;;;;4958381;28;20401;-79
2023/02/01 02:16:23;;;;;;;23.02;7.10;;;3.90;99.90;;;;;;4965748;28;21198;-79
2023/02/01 02:19:10;;;;;;;24.00;6.97;;;3.90;99.90;;;;;;4972921;28;20390;-80
2023/02/01 02:22:13;;;;;;;25.67;6.85;;;3.90;99.90;;;;;;4971175;28;20402;-79
2023/02/01 02:25:03;;;;;;;33.50;7.90;;;3.90;99.90;;;;;;4971828;28;20379;-79
2023/02/01 02:27:52;;;;;;;26.88;6.85;;;3.90;99.90;;;;;;4972175;28;21045;-78
2023/02/01 02:30:17;;;;;;;27.80;7.50;;;3.90;99.90;;;;;;4972562;28;20387;-79
2023/02/01 02:32:46;;;;;;;23.83;6.90;;;3.90;99.90;;;;;;4971364;28;20409;-79
2023/02/01 02:35:24;;;;;;;24.55;7.78;;;3.90;99.90;;;;;;4971691;28;20446;-79
2023/02/01 02:38:29;;;;;;;27.33;7.55;;;3.80;99.90;;;;;;4972151;28;20390;-79
2023/02/01 02:41:12;;;;;;;24.42;7.43;;;3.80;99.90;;;;;;4970712;28;20383;-80
2023/02/01 02:54:44;;;;;;;25.38;7.93;;;4.10;99.90;;;;;;4969755;28;21848;-79
2023/02/01 02:55:28;;;;;;;24.77;7.33;;;3.80;99.90;;;;;;4951366;28;20411;-80
2023/02/01 03:06:15;;;;;;;27.05;6.90;;;3.90;99.90;;;;;;4971497;28;20413;-80
2023/02/01 03:08:45;;;;;;;24.45;6.55;;;4.10;99.90;;;;;;4966533;28;20405;-79
2023/02/01 03:11:14;;;;;;;27.50;6.80;;;4.20;99.90;;;;;;4969250;28;20880;-79
2023/02/01 03:13:45;;;;;;;28.47;7.07;;;4.00;99.90;;;;;;4970206;28;20801;-79
2023/02/01 03:16:52;;;;;;;28.47;7.00;;;4.00;99.90;;;;;;4970693;28;20445;-78
2023/02/01 03:19:23;;;;;;;29.23;6.67;;;4.00;99.90;;;;;;4969096;28;20395;-78
2023/02/01 03:21:55;;;;;;;27.80;7.82;;;3.90;99.90;;;;;;4962031;28;20898;-79
2023/02/01 03:24:32;;;;;;;26.35;6.82;;;3.90;99.90;;;;;;4966688;28;20405;-79
2023/02/01 03:27:19;;;;;;;24.77;7.45;;;4.00;99.90;;;;;;4968572;28;20418;-80
2023/02/01 03:29:50;;;;;;;32.53;8.10;;;4.00;99.90;;;;;;4969124;28;20878;-78
2023/02/01 03:32:17;;;;;;;26.92;7.25;;;4.00;99.90;;;;;;4969967;28;20848;-78
2023/02/01 03:34:43;;;;;;;27.77;6.10;;;4.10;99.90;;;;;;4970163;28;20398;-79
2023/02/01 03:37:11;;;;;;;28.13;6.95;;;4.00;99.90;;;;;;4969365;28;20426;-78
2023/02/01 03:39:57;;;;;;;26.27;7.22;;;4.00;99.90;;;;;;4970723;28;20744;-78
2023/02/01 03:42:31;;;;;;;26.73;6.68;;;4.10;99.90;;;;;;4969284;28;20404;-78
2023/02/01 03:45:25;;;;;;;27.65;6.90;;;4.20;99.90;;;;;;4970147;28;20494;-79
2023/02/01 03:47:56;;;;;;;32.13;7.45;;;4.20;99.90;;;;;;4965492;28;20466;-80
2023/02/01 03:50:25;;;;;;;24.73;7.35;;;4.20;99.90;;;;;;4969932;28;20510;-80
2023/02/01 03:53:11;;;;;;;25.65;6.75;;;4.30;99.90;;;;;;4968677;28;20904;-80
2023/02/01 03:55:38;;;;;;;26.63;6.97;;;4.30;99.90;;;;;;4969925;28;20429;-79
2023/02/01 03:58:12;;;;;;;26.35;7.40;;;4.30;99.90;;;;;;4968297;28;20399;-79
2023/02/01 04:00:38;;;;;;;22.52;6.75;;;4.40;99.90;;;;;;4969307;28;20410;-79
2023/02/01 04:03:06;;;;;;;32.65;6.95;;;4.40;99.90;;;;;;4969610;28;20378;-79
2023/02/01 04:05:32;;;;;;;29.17;6.88;;;4.70;99.90;;;;;;4968470;28;20742;-79
2023/02/01 04:08:01;;;;;;;30.88;7.65;;;4.50;99.90;;;;;;4968653;28;20450;-80
2023/02/01 04:10:27;;;;;;;29.65;7.30;;;4.50;99.90;;;;;;4960294;28;20394;-79
2023/02/01 04:12:53;;;;;;;25.88;7.30;;;4.60;99.90;;;;;;4969447;28;20392;-79
2023/02/01 04:15:19;;;;;;;28.83;7.60;;;4.80;99.90;;;;;;4968897;28;20430;-80
2023/02/01 04:17:44;;;;;;;28.55;7.25;;;4.60;99.90;;;;;;4969194;28;20402;-79
2023/02/01 04:20:11;;;;;;;26.92;6.78;;;4.70;99.90;;;;;;4969104;28;20976;-80
2023/02/01 04:22:36;;;;;;;27.73;7.32;;;4.80;99.90;;;;;;4969676;28;21023;-80
2023/02/01 04:25:02;;;;;;;24.42;6.97;;;4.70;99.90;;;;;;4968618;28;20417;-80
2023/02/01 04:27:28;;;;;;;26.05;7.72;;;4.70;99.90;;;;;;4970229;28;20398;-78
2023/02/01 04:29:53;;;;;;;23.70;6.47;;;4.80;99.90;;;;;;4969373;28;20399;-79
2023/02/01 04:32:19;;;;;;;25.73;6.63;;;4.90;99.90;;;;;;4970415;28;20402;-79
2023/02/01 04:34:45;;;;;;;24.87;6.60;;;4.80;99.90;;;;;;4968687;28;20540;-80
2023/02/01 04:37:11;;;;;;;27.83;8.07;;;4.80;99.90;;;;;;4968020;28;20507;-79
2023/02/01 04:39:37;;;;;;;28.50;6.80;;;5.00;99.90;;;;;;4969542;28;20745;-80
2023/02/01 04:42:03;;;;;;;28.80;6.97;;;5.00;99.90;;;;;;4970606;28;20974;-80
2023/02/01 04:44:28;;;;;;;28.23;7.85;;;5.00;99.90;;;;;;4969854;28;20390;-79
2023/02/01 04:46:54;;;;;;;26.25;7.65;;;4.90;99.90;;;;;;4968700;28;20846;-78
2023/02/01 04:49:21;;;;;;;23.42;6.65;;;5.00;99.90;;;;;;4968464;28;20394;-79
2023/02/01 04:51:47;;;;;;;24.13;7.45;;;5.10;99.90;;;;;;4969236;28;20402;-80
2023/02/01 04:54:13;;;;;;;28.88;7.47;;;5.00;99.90;;;;;;4969313;28;20420;-79
2023/02/01 04:56:39;;;;;;;29.52;7.28;;;4.90;99.90;;;;;;4969374;28;20410;-79
2023/02/01 04:59:05;;;;;;;23.93;7.43;;;5.00;99.90;;;;;;4968047;28;20458;-79
2023/02/01 05:01:31;;;;;;;25.17;6.85;;;4.90;99.90;;;;;;4969359;28;20434;-79
2023/02/01 05:03:57;;;;;;;29.30;7.35;;;5.00;99.90;;;;;;4970447;28;20386;-79
2023/02/01 05:06:23;;;;;;;21.63;6.85;;;5.10;99.90;;;;;;4969808;28;20857;-79
2023/02/01 05:08:49;;;;;;;27.15;6.82;;;5.10;99.90;;;;;;4968544;28;20395;-79
2023/02/01 05:13:59;;;;;;;25.40;6.95;;;5.10;99.90;;;;;;4969148;28;20423;-79
2023/02/01 05:16:26;;;;;;;27.77;8.43;;;5.00;99.90;;;;;;4968016;28;20755;-80
2023/02/01 05:18:52;;;;;;;20.20;6.30;;;5.00;99.90;;;;;;4972283;28;20856;-81
2023/02/01 05:21:18;;;;;;;24.27;6.88;;;5.10;99.90;;;;;;4973773;28;20382;-80
2023/02/01 05:26:28;;;;;;;28.03;7.40;;;5.20;99.90;;;;;;4972915;28;20430;-82
2023/02/01 05:28:54;;;;;;;28.27;8.27;;;5.10;99.90;;;;;;4973460;28;20410;-80
2023/02/01 05:31:20;;;;;;;23.48;6.45;;;5.10;99.90;;;;;;4973653;28;20382;-81
2023/02/01 05:33:47;;;;;;;26.60;7.37;;;5.30;99.90;;;;;;4973074;28;20398;-80
2023/02/01 05:36:13;;;;;;;23.48;6.68;;;5.10;99.90;;;;;;4973259;28;20970;-80
2023/02/01 05:38:40;;;;;;;23.80;6.80;;;5.10;99.90;;;;;;4972289;28;20390;-80
2023/02/01 05:41:06;;;;;;;24.67;7.43;;;5.20;99.90;;;;;;4971130;28;20422;-80
2023/02/01 05:43:31;;;;;;;28.17;7.77;;;5.20;99.90;;;;;;4972505;28;20485;-80
2023/02/01 05:45:57;;;;;;;23.33;6.30;;;5.20;99.90;;;;;;4973690;28;20468;-79
2023/02/01 05:48:23;;;;;;;26.65;7.03;;;5.20;99.90;;;;;;4972992;28;20430;-81
2023/02/01 05:50:48;;;;;;;26.75;7.65;;;5.10;99.90;;;;;;4972919;28;20416;-80
2023/02/01 05:53:14;;;;;;;27.40;6.60;;;5.10;99.90;;;;;;4973081;28;20379;-81
2023/02/01 05:55:41;;;;;;;23.70;7.37;;;5.20;99.90;;;;;;4972507;28;20468;-77
2023/02/01 05:58:07;;;;;;;25.42;7.07;;;5.10;99.90;;;;;;4971624;28;20398;-80
2023/02/01 06:00:33;;;;;;;27.05;6.93;;;5.10;99.90;;;;;;4972485;28;20396;-80
2023/02/01 06:02:58;;;;;;;25.10;6.57;;;5.10;99.90;;;;;;4972066;28;20379;-79
2023/02/01 06:05:24;;;;;;;24.37;6.90;;;5.10;99.90;;;;;;4972782;28;20480;-80
2023/02/01 06:07:50;;;;;;;23.33;6.78;;;5.10;99.90;;;;;;4972937;28;20390;-80
2023/02/01 06:10:17;;;;;;;23.10;6.93;;;5.20;99.90;;;;;;4970881;28;20505;-80
2023/02/01 06:12:44;;;;;;;22.75;7.07;;;5.10;99.90;;;;;;4972195;28;20378;-79
2023/02/01 06:15:11;;;;;;;29.65;7.35;;;5.10;99.90;;;;;;4971037;28;20422;-79
2023/02/01 06:17:39;;;;;;;29.38;7.85;;;5.00;99.90;;;;;;4970052;28;20940;-80
2023/02/01 06:20:06;;;;;;;26.13;6.97;;;4.90;99.90;;;;;;4970400;28;20465;-80
2023/02/01 06:22:32;;;;;;;25.92;7.18;;;4.90;99.90;;;;;;4970671;28;20418;-80
2023/02/01 06:25:01;;;;;;;29.83;7.60;;;4.90;99.90;;;;;;4971004;28;21047;-79
2023/02/01 06:27:26;;;;;;;25.73;7.63;;;4.80;99.90;;;;;;4970923;28;20433;-80
2023/02/01 06:29:53;;;;;;;27.02;6.88;;;4.80;99.90;;;;;;4971115;28;20884;-80
2023/02/01 06:32:18;;;;;;;27.65;7.20;;;4.90;99.90;;;;;;4971465;28;20897;-80
2023/02/01 06:34:44;;;;;;;27.70;6.93;;;4.90;99.90;;;;;;4971778;28;20406;-79
2023/02/01 06:37:11;;;;;;;27.27;7.23;;;4.90;99.90;;;;;;4971741;28;20436;-80
2023/02/01 06:39:36;;;;;;;26.02;6.95;;;4.90;99.90;;;;;;4970888;28;20398;-79
2023/02/01 06:42:03;;;;;;;24.83;7.03;;;4.90;99.90;;;;;;4970269;28;20395;-80
2023/02/01 06:44:29;;;;;;;21.25;6.20;;;4.90;99.90;;;;;;4969719;28;20413;-80
2023/02/01 06:46:54;;;;;;;21.75;6.53;;;4.90;99.90;;;;;;4971302;28;20387;-80
2023/02/01 06:49:20;;;;;;;29.37;7.17;;;4.90;99.90;;;;;;4970904;28;20383;-79
2023/02/01 06:51:46;;;;;;;24.60;7.00;;;4.90;99.90;;;;;;4971418;28;20965;-78
2023/02/01 06:54:12;;;;;;;23.80;7.15;;;5.20;99.90;;;;;;4970156;28;20458;-80
2023/02/01 06:56:38;;;;;;;23.40;7.10;;;5.00;99.90;;;;;;4971902;28;20461;-80
2023/02/01 06:59:11;;;;;;;26.10;6.75;;;5.10;99.90;;;;;;4971880;28;20391;-80
2023/02/01 07:01:37;;;;;;;23.77;6.40;;;4.90;99.90;;;;;;4971457;28;20421;-80
2023/02/01 07:04:03;;;;;;;19.77;6.37;;;4.90;99.90;;;;;;4968999;28;20868;-80
2023/02/01 07:06:28;;;;;;;21.15;6.60;;;4.90;99.90;;;;;;4964637;28;20411;-81
2023/02/01 07:08:55;;;;;;;23.88;6.38;;;5.00;99.90;;;;;;4971789;28;20390;-80
2023/02/01 07:11:21;;;;;;;22.45;6.65;;;4.80;99.90;;;;;;4970888;28;20509;-80
2023/02/01 07:13:47;;;;;;;24.48;6.97;;;4.90;99.90;;;;;;4971674;28;20515;-81
2023/02/01 07:16:19;;;;;;;24.45;6.72;;;4.80;99.90;;;;;;4968996;28;20480;-80
2023/02/01 07:18:45;;;;;;;21.90;6.82;;;4.70;99.90;;;;;;4968696;28;20757;-79
2023/02/01 07:21:11;;;;;;;21.55;7.15;;;4.70;99.90;;;;;;4971254;28;20849;-80
2023/02/01 07:23:37;;;;;;;21.73;7.28;;;4.80;99.90;;;;;;4970623;28;20402;-80
2023/02/01 07:26:05;;;;;;;21.35;7.18;;;4.60;99.90;;;;;;4966676;28;20386;-80
2023/02/01 07:28:33;;;;;;;25.08;6.95;;;4.70;99.90;;;;;;4968421;28;20397;-80
2023/02/01 07:31:17;;;;;;;22.35;6.97;;;4.70;99.90;;;;;;4960530;28;20414;-81
2023/02/01 07:33:43;;;;;;;20.85;6.40;;;4.60;99.90;;;;;;4968071;28;20402;-81
2023/02/01 07:36:12;;;;;;;21.17;6.68;;;4.50;99.90;;;;;;4969775;28;20411;-81
2023/02/01 07:38:38;;;;;;;20.42;7.20;;;4.50;99.90;;;;;;4970494;28;20387;-81
2023/02/01 07:41:05;;;;;;;21.60;7.57;;;4.50;99.90;;;;;;4970352;28;20481;-80
2023/02/01 07:43:32;;;;;;;26.65;7.63;;;4.40;99.90;;;;;;4967633;28;20403;-80
2023/02/01 07:45:58;;;;;;;19.63;7.00;;;4.50;99.90;;;;;;4968387;28;20959;-82
2023/02/01 07:48:25;;;;;;;23.73;7.20;;;4.60;99.90;;;;;;4969297;28;20430;-81
2023/02/01 07:51:03;;;;;;;21.50;6.72;;;4.30;99.90;;;;;;4970753;28;20390;-81
2023/02/01 07:53:30;;;;;;;22.03;6.77;;;4.30;99.90;;;;;;4969566;28;20391;-79
2023/02/01 07:55:56;;;;;;;20.30;6.60;;;4.30;99.90;;;;;;4970883;28;20402;-80
2023/02/01 07:58:23;;;;;;;22.20;7.28;;;4.20;99.90;;;;;;4969796;28;20454;-80
2023/02/01 08:03:33;;;;;;;18.40;6.65;;;4.20;99.90;;;;;;4970932;28;20448;-81
2023/02/01 08:05:58;;;;;;;20.88;6.63;;;4.20;99.90;;;;;;4970706;28;20469;-81
2023/02/01 08:08:24;;;;;;;18.75;6.32;;;4.10;99.90;;;;;;4969820;28;20387;-81
2023/02/01 08:10:50;;;;;;;18.67;6.07;;;3.80;99.90;;;;;;4970446;28;20391;-82
2023/02/01 08:13:16;;;;;;;16.17;6.30;;;4.00;99.90;;;;;;4950257;28;20815;-82
2023/02/01 08:15:42;;;;;;;19.85;7.25;;;4.00;99.90;;;;;;4968373;28;20572;-81
2023/02/01 08:18:09;;;;;;;17.15;6.65;;;3.90;99.90;;;;;;4969541;28;20385;-80
2023/02/01 08:20:35;;;;;;;17.10;6.80;;;4.00;99.90;;;;;;4971833;28;20402;-78
2023/02/01 08:23:02;;;;;;;15.43;6.70;;;3.90;99.90;;;;;;4971050;28;20809;-80
2023/02/01 08:25:34;;;;;;;15.40;6.85;;;4.00;99.90;;;;;;4966769;28;20373;-82
2023/02/01 08:28:00;;;;;;;15.60;6.65;;;3.70;99.90;;;;;;4968348;28;20397;-82
2023/02/01 08:30:27;;;;;;;18.88;7.15;;;4.00;99.90;;;;;;4969456;28;20378;-82
2023/02/01 08:32:53;;;;;;;19.30;7.70;;;4.30;99.90;;;;;;4969562;28;20403;-80
2023/02/01 08:35:18;;;;;;;14.97;7.17;;;4.10;99.90;;;;;;4969752;28;20424;-81
2023/02/01 08:37:44;;;;;;;20.13;5.93;;;4.10;99.90;;;;;;4967480;28;20477;-82
2023/02/01 08:40:10;;;;;;;13.83;5.80;;;4.10;99.90;;;;;;4968282;28;20499;-82
2023/02/01 08:42:51;;;;;;;14.20;5.53;;;4.10;99.90;;;;;;4963499;28;20895;-83
2023/02/01 08:45:25;;;;;;;13.98;5.63;;;4.10;99.90;;;;;;4963209;28;20433;-81
2023/02/01 08:47:52;;;;;;;11.38;4.80;;;4.10;99.90;;;;;;4964552;28;20770;-81
2023/02/01 08:50:19;;;;;;;11.77;5.18;;;4.20;99.90;;;;;;4969363;28;20401;-81
2023/02/01 08:52:46;;;;;;;12.05;4.75;;;4.00;99.90;;;;;;4969790;28;20397;-83
2023/02/01 08:55:13;;;;;;;9.40;4.25;;;4.20;99.90;;;;;;4970466;28;20505;-82
2023/02/01 08:57:38;;;;;;;9.05;3.92;;;4.30;99.90;;;;;;4970148;28;20386;-81
2023/02/01 09:00:07;;;;;;;9.50;3.30;;;4.30;99.90;;;;;;4971467;28;20457;-82
2023/02/01 09:02:32;;;;;;;7.15;3.17;;;4.30;99.90;;;;;;4970915;28;20405;-82
2023/02/01 09:04:58;;;;;;;8.25;2.70;;;4.40;99.90;;;;;;4988122;28;20889;-81
2023/02/01 09:07:24;;;;;;;5.40;2.40;;;4.60;99.90;;;;;;4972501;28;20792;-82
2023/02/01 09:09:49;;;;;;;5.07;2.40;;;4.40;99.90;;;;;;4974096;28;20390;-82
2023/02/01 09:12:15;;;;;;;4.95;2.08;;;4.50;99.90;;;;;;4969846;28;20418;-83
2023/02/01 09:14:41;;;;;;;5.33;1.90;;;4.40;99.90;;;;;;4972187;28;20430;-81
2023/02/01 09:17:07;;;;;;;4.77;2.30;;;4.40;99.90;;;;;;4971332;28;20386;-83
2023/02/01 09:19:32;;;;;;;4.43;1.70;;;4.60;99.90;;;;;;4971704;28;20390;-81
2023/02/01 09:21:58;;;;;;;5.60;1.70;;;4.50;99.90;;;;;;4970277;28;20508;-82
2023/02/01 09:24:24;;;;;;;4.03;1.63;;;4.50;99.90;;;;;;4970710;28;20469;-82
2023/02/01 09:26:50;;;;;;;4.35;1.70;;;4.30;99.90;;;;;;4969699;28;20386;-81
2023/02/01 09:29:15;;;;;;;4.78;1.70;;;4.50;99.90;;;;;;4953966;28;20416;-80
2023/02/01 09:31:41;;;;;;;4.25;1.88;;;4.50;99.90;;;;;;4968727;28;20382;-80
2023/02/01 09:34:07;;;;;;;3.92;1.63;;;4.50;99.90;;;;;;4972720;28;20401;-80
2023/02/01 09:36:34;;;;;;;5.35;1.80;;;4.60;99.90;;;;;;4968599;28;20477;-81
2023/02/01 09:39:00;;;;;;;5.38;1.70;;;4.60;99.90;;;;;;4965096;28;20457;-81
2023/02/01 09:41:45;;;;;;;4.35;1.90;;;4.60;99.90;;;;;;4969620;28;20854;-82
2023/02/01 09:44:24;;;;;;;4.45;1.88;;;4.60;99.90;;;;;;4969423;28;20389;-80
2023/02/01 09:46:56;;;;;;;7.10;2.20;;;4.60;99.90;;;;;;4967809;28;20410;-82
2023/02/01 09:49:42;;;;;;;5.30;1.95;;;4.60;99.90;;;;;;4966874;28;20421;-81
2023/02/01 09:52:10;;;;;;;3.95;2.10;;;4.50;99.90;;;;;;4970678;28;20480;-81
2023/02/01 09:54:50;;;;;;;5.20;2.10;;;4.60;99.90;;;;;;4968359;28;20398;-82
2023/02/01 09:57:36;;;;;;;5.32;2.08;;;4.50;99.90;;;;;;4968406;28;20402;-81
2023/02/01 10:00:15;;;;;;;6.97;2.47;;;4.70;99.90;;;;;;4970183;28;20387;-80
2023/02/01 10:02:41;;;;;;;6.40;2.10;;;4.90;99.90;;;;;;4968585;28;20383;-80
2023/02/01 10:05:17;;;;;;;5.63;1.77;;;4.90;99.90;;;;;;4969430;28;20477;-81
2023/02/01 10:07:55;;;;;;;4.27;1.80;;;4.90;99.90;;;;;;4970347;28;20470;-81
2023/02/01 10:10:32;;;;;;;5.53;2.20;;;5.00;99.90;;;;;;4972429;28;20711;-81
2023/02/01 10:13:23;;;;;;;8.02;2.20;;;5.00;99.90;;;;;;4970026;28;20387;-81
2023/02/01 10:16:25;;;;;;;7.15;2.33;;;5.00;99.90;;;;;;4972189;28;20410;-81
2023/02/01 10:19:26;;;;;;;8.38;2.30;;;5.00;99.90;;;;;;4965004;28;20404;-79
2023/02/01 10:22:02;;;;;;;8.57;2.33;;;5.10;99.90;;;;;;4972709;28;20418;-81
2023/02/01 10:24:33;;;;;;;9.15;2.40;;;5.20;99.90;;;;;;4972251;28;20426;-81
2023/02/01 10:27:22;;;;;;;8.70;2.47;;;5.00;99.90;;;;;;4973110;28;20391;-80
2023/02/01 10:29:54;;;;;;;7.53;2.53;;;4.80;99.90;;;;;;4949209;28;20388;-81
2023/02/01 10:32:29;;;;;;;9.13;2.92;;;4.70;99.90;;;;;;4973015;28;20390;-82
2023/02/01 10:35:09;;;;;;;9.15;2.60;;;4.60;99.90;;;;;;4972983;28;20393;-82
2023/02/01 10:37:35;;;;;;;9.35;3.10;;;4.60;99.90;;;;;;4970686;28;20450;-81
2023/02/01 10:40:13;;;;;;;12.05;3.47;;;4.60;99.90;;;;;;4972153;28;20827;-81
2023/02/01 10:42:39;;;;;;;11.10;2.77;;;4.70;99.90;;;;;;4962579;28;20906;-81
2023/02/01 10:45:06;;;;;;;11.68;3.15;;;4.70;99.90;;;;;;4970112;28;20418;-82
2023/02/01 10:47:32;;;;;;;16.33;3.17;;;4.80;99.90;;;;;;4965875;28;20449;-81
2023/02/01 10:50:16;;;;;;;12.20;3.22;;;4.80;99.90;;;;;;4971559;28;20897;-81
2023/02/01 10:52:48;;;;;;;9.90;2.88;;;5.00;99.90;;;;;;4963970;28;20407;-81
2023/02/01 10:55:27;;;;;;;10.88;3.60;;;5.20;99.90;;;;;;4952071;28;20483;-81
2023/02/01 10:57:59;;;;;;;9.75;3.40;;;5.40;99.90;;;;;;4951470;28;20388;-81
2023/02/01 11:00:25;;;;;;;12.07;3.20;;;5.40;99.90;;;;;;4971395;28;20386;-81
2023/02/01 11:02:51;;;;;;;10.80;3.42;;;5.40;99.90;;;;;;4970692;28;20398;-81
2023/02/01 11:05:18;;;;;;;8.85;2.67;;;5.30;99.90;;;;;;4971445;28;20375;-80
2023/02/01 11:07:52;;;;;;;13.57;4.10;;;5.50;99.90;;;;;;4970830;28;20397;-80
2023/02/01 11:10:41;;;;;;;10.07;3.25;;;5.60;99.90;;;;;;4970856;28;20394;-81
2023/02/01 11:13:18;;;;;;;10.13;3.47;;;5.70;99.90;;;;;;4968746;28;20415;-81
2023/02/01 11:15:55;;;;;;;10.80;3.80;;;5.80;99.90;;;;;;4970958;28;20464;-81
2023/02/01 11:18:27;;;;;;;12.98;4.22;;;6.10;99.90;;;;;;4965670;28;20407;-81
2023/02/01 11:20:54;;;;;;;14.23;3.75;;;6.40;99.90;;;;;;4965814;28;20446;-80
2023/02/01 11:23:24;;;;;;;12.80;3.55;;;6.70;99.90;;;;;;4970850;28;20415;-80
2023/02/01 11:25:54;;;;;;;10.43;3.33;;;6.70;99.90;;;;;;4972129;28;20409;-80
2023/02/01 11:28:31;;;;;;;12.30;3.60;;;6.50;99.90;;;;;;4966668;28;20402;-82
2023/02/01 11:31:02;;;;;;;13.60;3.80;;;6.40;99.90;;;;;;4970834;28;20430;-81
2023/02/01 11:33:34;;;;;;;9.75;3.75;;;6.50;99.90;;;;;;4966380;28;20413;-81
2023/02/01 11:36:08;;;;;;;13.70;3.22;;;6.60;99.90;;;;;;4968606;28;20434;-81
2023/02/01 11:38:35;;;;;;;14.10;4.00;;;6.50;99.90;;;;;;4970320;28;20937;-81
2023/02/01 11:41:24;;;;;;;11.38;3.50;;;6.60;99.90;;;;;;4973302;28;20488;-80
2023/02/01 11:43:57;;;;;;;10.77;3.63;;;6.60;99.90;;;;;;4972160;28;20386;-80
2023/02/01 11:46:28;;;;;;;8.25;3.05;;;7.10;99.90;;;;;;4973112;28;20383;-81
2023/02/01 11:48:57;;;;;;;11.13;3.22;;;7.30;99.90;;;;;;4966821;28;20468;-81
2023/02/01 11:51:44;;;;;;;9.32;3.20;;;7.40;99.90;;;;;;4973814;28;20448;-81
2023/02/01 11:54:33;;;;;;;8.80;2.75;;;7.20;99.90;;;;;;4972224;28;20433;-80
2023/02/01 11:57:30;;;;;;;8.65;2.80;;;7.20;99.90;;;;;;4971316;28;20513;-80
2023/02/01 12:00:04;;;;;;;9.90;3.30;;;7.10;99.90;;;;;;4970700;28;20909;-81
2023/02/01 12:02:46;;;;;;;8.82;2.80;;;7.10;99.90;;;;;;4971507;28;20386;-80
2023/02/01 12:05:33;;;;;;;11.40;3.38;;;7.10;99.90;;;;;;4970264;28;21552;-81
2023/02/01 12:08:28;;;;;;;9.93;3.60;;;6.90;99.90;;;;;;4967765;28;20484;-80
2023/02/01 12:11:30;;;;;;;10.73;3.67;;;6.80;99.90;;;;;;4969855;28;20421;-80
2023/02/01 12:14:17;;;;;;;13.15;4.07;;;6.60;99.90;;;;;;4969462;28;20379;-80
2023/02/01 12:17:15;;;;;;;10.57;4.00;;;6.40;99.90;;;;;;4966337;28;20418;-81
2023/02/01 12:20:04;;;;;;;16.35;4.07;;;6.40;99.90;;;;;;4970301;28;20493;-80
2023/02/01 12:22:54;;;;;;;12.00;3.88;;;6.40;99.90;;;;;;4968361;28;20853;-79
2023/02/01 12:25:57;;;;;;;16.15;4.43;;;6.30;99.90;;;;;;4969962;28;20481;-80
2023/02/01 12:28:31;;;;;;;12.77;4.20;;;6.30;99.90;;;;;;4967256;28;20414;-81
2023/02/01 12:31:25;;;;;;;10.85;3.90;;;6.40;99.90;;;;;;4968373;28;20387;-81
2023/02/01 12:34:06;;;;;;;10.00;3.53;;;6.40;99.90;;;;;;4970121;28;20386;-80
2023/02/01 12:36:53;;;;;;;14.82;4.82;;;6.50;99.90;;;;;;4967318;28;20429;-81
2023/02/01 12:39:38;;;;;;;13.13;3.70;;;6.60;99.90;;;;;;4965165;28;20434;-80
2023/02/01 12:42:13;;;;;;;13.48;3.70;;;6.60;99.90;;;;;;4970942;28;20899;-81
2023/02/01 12:44:39;;;;;;;13.90;3.80;;;6.70;99.90;;;;;;4965612;28;20437;-81
2023/02/01 12:47:13;;;;;;;11.55;3.55;;;6.70;99.90;;;;;;4969652;28;20413;-81
2023/02/01 12:49:55;;;;;;;13.93;4.15;;;6.70;99.90;;;;;;4964418;28;20405;-80
2023/02/01 12:52:33;;;;;;;15.50;4.20;;;6.70;99.90;;;;;;4954080;28;20385;-81
2023/02/01 12:55:17;;;;;;;11.68;3.78;;;6.70;99.90;;;;;;4966132;28;20402;-79
2023/02/01 12:57:49;;;;;;;9.63;3.60;;;6.80;99.90;;;;;;4951667;28;20392;-81
2023/02/01 13:00:30;;;;;;;13.02;3.83;;;6.90;99.90;;;;;;4966007;28;20451;-81
2023/02/01 13:03:15;;;;;;;13.13;3.78;;;6.80;99.90;;;;;;4968824;28;20473;-81
2023/02/01 13:05:54;;;;;;;13.80;3.67;;;6.80;99.90;;;;;;4963179;28;20461;-82
2023/02/01 13:08:28;;;;;;;10.93;3.53;;;6.80;99.90;;;;;;4966355;28;20402;-81
2023/02/01 13:11:09;;;;;;;12.02;3.80;;;6.80;99.90;;;;;;4967342;28;20449;-82
2023/02/01 13:13:39;;;;;;;10.20;3.63;;;6.70;99.90;;;;;;4968202;28;20403;-81
2023/02/01 13:16:18;;;;;;;14.23;4.28;;;6.70;99.90;;;;;;4966209;28;21200;-82
2023/02/01 13:18:49;;;;;;;14.53;4.37;;;6.70;99.90;;;;;;4967919;28;20427;-82
2023/02/01 13:21:26;;;;;;;13.18;4.07;;;6.70;99.90;;;;;;4968990;28;20386;-81
2023/02/01 13:23:53;;;;;;;11.65;3.83;;;6.70;99.90;;;;;;4966833;28;20409;-80
2023/02/01 13:26:19;;;;;;;11.70;4.07;;;6.70;99.90;;;;;;4969195;28;20386;-81
2023/02/01 13:28:46;;;;;;;12.65;3.80;;;6.70;99.90;;;;;;4961789;28;20504;-81
2023/02/01 13:31:32;;;;;;;11.13;3.83;;;6.70;99.90;;;;;;4968499;28;20397;-81
2023/02/01 13:34:07;;;;;;;11.23;3.60;;;6.70;99.90;;;;;;4958952;28;20386;-81
2023/02/01 13:36:46;;;;;;;12.45;4.70;;;6.80;99.90;;;;;;4965414;28;20439;-84
2023/02/01 13:39:29;;;;;;;14.75;4.00;;;6.70;99.90;;;;;;4967768;28;20777;-85
2023/02/01 13:42:19;;;;;;;15.88;4.25;;;6.70;99.90;;;;;;4971359;28;20382;-84